X  Schließen METAR Luftfahrt Wetterdaten     LGTS Thessaloniki Macedonia International Airport
Temperatur
25°C Temperatur
15°C Taupunkt
54% Feuchtigkeit



Wind
6 MPS
10 KM/S
3 M/S
5 KTS



70°
ONO
Aktuelle Wetterlage

Teilweise bewölkt Teilweise bewölkt
Luftdruck 1009.82 (hPa) - 29.82 (inHg)
Sichtweite 6 (Meile) - 9.7 (Km)
Flughafen
Flughafen Code LGTS

Position : Thessaloniki Macedonia International Airport
Entfernung: 85 (mi)

Metar:
LGTS 122320Z 07005KT 9999 FEW030 25/15 Q1010 NOSIG

Zeit: 13-07-2024 02:20 EEST